createdAt,value
2017-12-16T00:00:36.403Z,8.10
2017-12-16T00:03:03.838Z,9.38
2017-12-16T00:05:33.261Z,6.35
2017-12-16T00:08:00.712Z,10.55
2017-12-16T00:10:28.175Z,7.35
2017-12-16T00:12:56.551Z,7.57
2017-12-16T00:15:24.930Z,7.07
2017-12-16T00:17:52.655Z,7.07
2017-12-16T00:20:20.270Z,8.13
2017-12-16T00:22:47.775Z,8.02
2017-12-16T00:25:15.209Z,7.90
2017-12-16T00:27:42.665Z,7.90
2017-12-16T00:30:10.112Z,8.07
2017-12-16T00:32:37.960Z,13.15
2017-12-16T00:35:05.432Z,8.43
2017-12-16T00:37:33.266Z,7.78
2017-12-16T00:40:02.271Z,9.25
2017-12-16T00:42:32.734Z,8.38
2017-12-16T00:45:00.555Z,10.18
2017-12-16T00:47:28.019Z,8.93
2017-12-16T00:49:55.466Z,11.15
2017-12-16T00:52:22.904Z,9.10
2017-12-16T00:54:50.358Z,12.20
2017-12-16T00:57:17.816Z,10.23
2017-12-16T00:59:46.174Z,13.98
2017-12-16T01:02:16.182Z,10.68
2017-12-16T01:04:43.665Z,12.10
2017-12-16T01:07:11.106Z,9.70
2017-12-16T01:09:38.570Z,11.15
2017-12-16T01:12:06.091Z,12.73
2017-12-16T01:14:33.948Z,12.85
2017-12-16T01:17:01.790Z,11.07
2017-12-16T01:19:30.270Z,11.40
2017-12-16T01:21:57.709Z,10.98
2017-12-16T01:24:25.155Z,10.35
2017-12-16T01:26:52.597Z,8.88
2017-12-16T01:29:20.077Z,8.95
2017-12-16T01:31:47.517Z,12.07
2017-12-16T01:34:26.990Z,13.25
2017-12-16T01:37:06.399Z,10.40
2017-12-16T01:39:33.846Z,13.07
2017-12-16T01:42:01.279Z,13.05
2017-12-16T01:44:28.710Z,13.98
2017-12-16T01:46:56.154Z,12.43
2017-12-16T01:49:23.590Z,10.43
2017-12-16T01:51:51.035Z,13.45
2017-12-16T01:54:19.394Z,16.87
2017-12-16T01:56:46.838Z,11.32
2017-12-16T01:59:14.280Z,10.77
2017-12-16T02:01:41.723Z,17.55
2017-12-16T02:04:09.170Z,14.48
2017-12-16T02:06:36.610Z,14.70
2017-12-16T02:09:04.055Z,12.15
2017-12-16T02:11:31.501Z,16.17
2017-12-16T02:13:58.952Z,16.15
2017-12-16T02:16:26.387Z,10.20
2017-12-16T02:18:54.210Z,11.73
2017-12-16T02:21:21.670Z,13.50
2017-12-16T02:23:51.072Z,12.43
2017-12-16T02:26:18.517Z,13.60
2017-12-16T02:28:45.978Z,10.13
2017-12-16T02:31:14.329Z,11.40
2017-12-16T02:33:42.638Z,12.25
2017-12-16T02:36:10.083Z,8.82
2017-12-16T02:38:37.568Z,9.30
2017-12-16T02:41:05.007Z,8.80
2017-12-16T02:43:32.450Z,10.32
2017-12-16T02:45:59.890Z,8.50
2017-12-16T02:48:27.346Z,9.73
2017-12-16T02:50:54.778Z,10.70
2017-12-16T02:53:22.231Z,12.50
2017-12-16T02:55:50.055Z,8.90
2017-12-16T02:58:17.495Z,11.85
2017-12-16T03:00:44.941Z,8.82
2017-12-16T03:03:12.391Z,9.40
2017-12-16T03:05:39.814Z,9.88
2017-12-16T03:08:07.646Z,9.77
2017-12-16T03:10:35.103Z,10.68
2017-12-16T03:13:02.539Z,9.73
2017-12-16T03:15:29.987Z,11.35
2017-12-16T03:17:57.440Z,11.02
2017-12-16T03:20:25.791Z,6.72
2017-12-16T03:22:53.610Z,9.05
2017-12-16T03:25:21.051Z,9.80
2017-12-16T03:27:48.496Z,7.45
2017-12-16T03:30:15.923Z,9.13
2017-12-16T03:32:43.760Z,7.00
2017-12-16T03:35:11.206Z,10.63
2017-12-16T03:37:38.662Z,10.38
2017-12-16T03:40:06.096Z,9.13
2017-12-16T03:42:34.455Z,10.75
2017-12-16T03:45:01.887Z,10.25
2017-12-16T03:47:29.711Z,8.50
2017-12-16T03:49:57.145Z,8.55
2017-12-16T03:52:25.485Z,9.27
2017-12-16T03:54:54.230Z,10.30
2017-12-16T03:57:21.991Z,9.60
2017-12-16T03:59:49.433Z,11.43
2017-12-16T04:02:16.867Z,10.45
2017-12-16T04:04:44.306Z,9.70
2017-12-16T04:07:12.129Z,10.60
2017-12-16T04:09:39.558Z,11.90
2017-12-16T04:12:07.008Z,10.30
2017-12-16T04:14:34.433Z,13.20
2017-12-16T04:17:02.261Z,10.70
2017-12-16T04:19:29.696Z,10.30
2017-12-16T04:21:57.138Z,9.77
2017-12-16T04:24:24.578Z,11.20
2017-12-16T04:26:54.350Z,5.22
2017-12-16T04:29:21.789Z,8.50
2017-12-16T04:31:51.150Z,7.82
2017-12-16T04:34:18.578Z,4.72
2017-12-16T04:36:46.010Z,5.12
2017-12-16T04:39:13.458Z,10.98
2017-12-16T04:41:40.882Z,3.55
2017-12-16T04:44:09.190Z,5.15
2017-12-16T04:46:36.612Z,5.45
2017-12-16T04:49:04.045Z,7.40
2017-12-16T04:51:32.745Z,5.22
2017-12-16T04:54:00.868Z,5.18
2017-12-16T04:56:28.288Z,5.32
2017-12-16T04:58:55.714Z,5.03
2017-12-16T05:01:23.537Z,8.77
2017-12-16T05:03:50.961Z,5.35
2017-12-16T05:06:18.401Z,6.80
2017-12-16T05:08:46.224Z,7.85
2017-12-16T05:11:13.661Z,5.90
2017-12-16T05:13:42.001Z,8.20
2017-12-16T05:16:09.834Z,6.93
2017-12-16T05:18:37.270Z,7.68
2017-12-16T05:21:04.786Z,5.75
2017-12-16T05:23:32.604Z,5.62
2017-12-16T05:26:00.037Z,4.93
2017-12-16T05:28:27.456Z,6.30
2017-12-16T05:30:55.293Z,5.95
2017-12-16T05:33:22.717Z,6.53
2017-12-16T05:35:51.045Z,4.43
2017-12-16T05:38:18.473Z,6.20
2017-12-16T05:40:45.896Z,4.95
2017-12-16T05:43:13.324Z,7.55
2017-12-16T05:45:41.153Z,5.05
2017-12-16T05:48:08.578Z,6.20
2017-12-16T05:50:36.004Z,5.82
2017-12-16T05:53:03.864Z,7.43
2017-12-16T05:55:31.692Z,6.85
2017-12-16T05:57:59.127Z,7.62
2017-12-16T06:00:26.556Z,7.72
2017-12-16T06:02:54.376Z,6.43
2017-12-16T06:05:22.728Z,7.18
2017-12-16T06:07:50.161Z,9.63
2017-12-16T06:10:17.580Z,6.28
2017-12-16T06:12:45.013Z,5.78
2017-12-16T06:15:12.447Z,7.62
2017-12-16T06:17:39.903Z,5.37
2017-12-16T06:20:07.468Z,16.35
2017-12-16T06:22:34.914Z,10.13
2017-12-16T06:25:02.359Z,11.00
2017-12-16T06:27:29.776Z,8.57
2017-12-16T06:29:57.220Z,9.70
2017-12-16T06:32:25.525Z,9.00
2017-12-16T06:34:53.382Z,13.88
2017-12-16T06:37:20.801Z,11.50
2017-12-16T06:39:59.556Z,9.82
2017-12-16T06:43:04.891Z,12.65
2017-12-16T06:45:32.425Z,8.63
2017-12-16T06:48:04.712Z,11.20
2017-12-16T06:50:33.807Z,18.98
2017-12-16T06:53:02.843Z,9.02
2017-12-16T06:55:31.581Z,21.95
2017-12-16T06:58:01.680Z,12.82
2017-12-16T07:00:31.247Z,14.87
2017-12-16T07:05:31.124Z,16.30
2017-12-16T07:07:58.571Z,16.08
2017-12-16T07:10:26.895Z,14.13
2017-12-16T07:12:54.334Z,17.98
2017-12-16T07:15:23.735Z,16.48
2017-12-16T07:17:51.220Z,31.17
2017-12-16T07:20:18.655Z,16.65
2017-12-16T07:22:57.543Z,12.02
2017-12-16T07:25:24.995Z,11.80
2017-12-16T07:27:52.435Z,10.07
2017-12-16T07:30:19.870Z,11.45
2017-12-16T07:32:47.711Z,15.55
2017-12-16T07:35:16.058Z,12.25
2017-12-16T07:37:43.509Z,23.50
2017-12-16T07:40:10.970Z,15.50
2017-12-16T07:42:38.431Z,14.90
2017-12-16T07:45:05.877Z,11.45
2017-12-16T07:47:34.247Z,12.95
2017-12-16T07:50:02.105Z,12.70
2017-12-16T07:52:30.437Z,11.80
2017-12-16T07:54:57.870Z,13.57
2017-12-16T07:57:25.312Z,9.88
2017-12-16T07:59:52.759Z,15.27
2017-12-16T08:02:20.242Z,12.85
2017-12-16T08:04:47.674Z,19.65
2017-12-16T08:07:15.139Z,13.57
2017-12-16T08:09:43.401Z,14.15
2017-12-16T08:12:10.874Z,13.18
2017-12-16T08:14:38.330Z,14.18
2017-12-16T08:17:05.786Z,15.57
2017-12-16T08:19:33.244Z,17.62
2017-12-16T08:22:00.684Z,15.18
2017-12-16T08:24:28.143Z,17.10
2017-12-16T08:26:55.579Z,19.60
2017-12-16T08:29:23.436Z,15.85
2017-12-16T08:31:51.271Z,17.98
2017-12-16T08:34:19.747Z,15.80
2017-12-16T08:36:47.181Z,19.40
2017-12-16T08:39:14.614Z,17.42
2017-12-16T08:41:42.077Z,14.48
2017-12-16T08:44:10.392Z,16.92
2017-12-16T08:46:39.772Z,15.98
2017-12-16T08:49:07.218Z,15.82
2017-12-16T08:51:34.650Z,16.62
2017-12-16T08:54:02.512Z,19.95
2017-12-16T08:56:31.261Z,14.65
2017-12-16T08:58:58.715Z,15.45
2017-12-16T09:01:26.163Z,15.60
2017-12-16T09:03:53.605Z,19.73
2017-12-16T09:06:21.947Z,15.35
2017-12-16T09:08:50.660Z,18.40
2017-12-16T09:11:18.114Z,17.83
2017-12-16T09:13:45.556Z,20.67
2017-12-16T09:16:13.411Z,15.05
2017-12-16T09:18:40.849Z,14.77
2017-12-16T09:21:08.328Z,20.85
2017-12-16T09:23:35.795Z,15.38
2017-12-16T09:26:04.107Z,18.55
2017-12-16T09:28:32.427Z,14.55
2017-12-16T09:30:59.866Z,23.42
2017-12-16T09:33:27.311Z,21.08
2017-12-16T09:35:54.762Z,18.55
2017-12-16T09:38:22.199Z,17.52
2017-12-16T09:40:49.662Z,17.65
2017-12-16T09:43:17.122Z,17.87
2017-12-16T09:45:44.586Z,20.70
2017-12-16T09:48:12.899Z,21.15
2017-12-16T09:50:40.362Z,17.80
2017-12-16T09:53:07.794Z,16.85
2017-12-16T09:55:36.153Z,19.12
2017-12-16T09:58:03.598Z,18.10
2017-12-16T10:00:31.046Z,18.42
2017-12-16T10:02:58.495Z,20.92
2017-12-16T10:05:25.933Z,20.90
2017-12-16T10:07:53.790Z,16.83
2017-12-16T10:10:21.220Z,23.80
2017-12-16T10:12:48.661Z,15.73
2017-12-16T10:15:16.171Z,17.35
2017-12-16T10:17:43.567Z,25.65
2017-12-16T10:20:11.096Z,19.33
2017-12-16T10:22:38.538Z,19.65
2017-12-16T10:25:06.383Z,18.70
2017-12-16T10:27:33.825Z,21.60
2017-12-16T10:30:01.274Z,20.12
2017-12-16T10:32:28.718Z,20.98
2017-12-16T10:34:56.152Z,25.55
2017-12-16T10:37:23.607Z,21.58
2017-12-16T10:39:51.726Z,20.73
2017-12-16T10:42:20.042Z,33.47
2017-12-16T10:44:47.486Z,28.10
2017-12-16T10:47:15.323Z,24.45
2017-12-16T10:49:42.778Z,20.50
2017-12-16T10:52:10.262Z,25.85
2017-12-16T10:54:37.709Z,28.65
2017-12-16T10:57:05.213Z,25.73
2017-12-16T10:59:32.639Z,27.37
2017-12-16T11:02:00.477Z,22.67
2017-12-16T11:04:27.938Z,27.58
2017-12-16T11:06:56.294Z,28.15
2017-12-16T11:09:23.802Z,23.70
2017-12-16T11:11:51.650Z,26.80
2017-12-16T11:14:19.486Z,23.48
2017-12-16T11:16:46.927Z,25.20
2017-12-16T11:19:14.384Z,19.95
2017-12-16T11:21:43.759Z,24.17
2017-12-16T11:24:11.193Z,23.30
2017-12-16T11:26:39.047Z,21.83
2017-12-16T11:29:06.486Z,19.98
2017-12-16T11:31:33.909Z,24.20
2017-12-16T11:34:01.366Z,16.85
2017-12-16T11:36:28.806Z,23.83
2017-12-16T11:38:57.177Z,20.90
2017-12-16T11:41:24.623Z,20.58
2017-12-16T11:43:53.318Z,23.30
2017-12-16T11:46:20.772Z,15.75
2017-12-16T11:48:48.594Z,16.10
2017-12-16T11:51:16.034Z,11.50
2017-12-16T11:53:43.477Z,12.63
2017-12-16T11:56:10.896Z,13.05
2017-12-16T11:58:38.773Z,12.65
2017-12-16T12:01:10.674Z,17.02
2017-12-16T12:03:38.118Z,11.73
2017-12-16T12:06:05.575Z,14.87
2017-12-16T12:08:33.021Z,15.02
2017-12-16T12:11:01.363Z,18.37
2017-12-16T12:13:28.806Z,12.05
2017-12-16T12:15:56.247Z,12.43
2017-12-16T12:18:24.562Z,9.15
2017-12-16T12:20:53.254Z,14.98
2017-12-16T12:23:21.079Z,8.13
2017-12-16T12:25:48.522Z,9.93
2017-12-16T12:28:15.964Z,9.82
2017-12-16T12:30:43.406Z,10.18
2017-12-16T12:33:10.849Z,12.05
2017-12-16T12:35:39.167Z,9.98
2017-12-16T12:38:06.614Z,10.68
2017-12-16T12:40:34.053Z,10.38
2017-12-16T12:43:01.485Z,7.55
2017-12-16T12:45:30.188Z,12.05
2017-12-16T12:47:57.629Z,10.30
2017-12-16T12:50:25.458Z,7.00
2017-12-16T12:52:52.898Z,11.55
2017-12-16T12:55:20.329Z,11.63
2017-12-16T12:57:47.765Z,9.25
2017-12-16T13:00:15.594Z,10.82
2017-12-16T13:02:43.022Z,9.55
2017-12-16T13:05:10.477Z,12.10
2017-12-16T13:07:38.821Z,8.55
2017-12-16T13:10:06.662Z,7.82
2017-12-16T13:12:34.970Z,7.18
2017-12-16T13:15:02.791Z,9.43
2017-12-16T13:17:30.222Z,7.40
2017-12-16T13:19:57.669Z,9.95
2017-12-16T13:22:25.118Z,10.25
2017-12-16T13:24:52.550Z,8.38
2017-12-16T13:27:22.329Z,8.80
2017-12-16T13:29:49.770Z,9.75
2017-12-16T13:32:17.209Z,6.05
2017-12-16T13:34:45.539Z,8.85
2017-12-16T13:37:12.976Z,7.95
2017-12-16T13:39:40.398Z,8.82
2017-12-16T13:42:07.825Z,7.43
2017-12-16T13:44:35.663Z,7.53
2017-12-16T13:47:03.090Z,11.60
2017-12-16T13:49:31.443Z,8.60
2017-12-16T13:51:58.873Z,9.43
2017-12-16T13:54:27.997Z,10.02
2017-12-16T13:56:55.418Z,7.85
2017-12-16T13:59:23.251Z,9.10
2017-12-16T14:01:50.682Z,8.75
2017-12-16T14:04:18.117Z,7.82
2017-12-16T14:06:45.555Z,7.40
2017-12-16T14:09:14.250Z,13.80
2017-12-16T14:11:43.002Z,9.10
2017-12-16T14:14:10.450Z,8.88
2017-12-16T14:16:37.882Z,7.05
2017-12-16T14:19:05.547Z,8.23
2017-12-16T14:21:32.994Z,10.25
2017-12-16T14:24:00.438Z,10.75
2017-12-16T14:26:27.869Z,8.13
2017-12-16T14:28:55.694Z,9.75
2017-12-16T14:31:23.159Z,9.35
2017-12-16T14:33:50.603Z,10.20
2017-12-16T14:36:18.050Z,8.43
2017-12-16T14:38:45.508Z,12.68
2017-12-16T14:41:12.934Z,10.80
2017-12-16T14:43:40.373Z,7.20
2017-12-16T14:46:08.678Z,9.57
2017-12-16T14:48:36.112Z,7.03
2017-12-16T14:51:03.937Z,7.90
2017-12-16T14:53:31.383Z,10.43
2017-12-16T14:55:58.828Z,10.38
2017-12-16T14:58:26.273Z,10.23
2017-12-16T15:00:53.698Z,7.40
2017-12-16T15:03:21.539Z,5.85
2017-12-16T15:05:48.973Z,6.87
2017-12-16T15:08:16.415Z,5.82
2017-12-16T15:10:43.835Z,9.18
2017-12-16T15:13:11.674Z,5.70
2017-12-16T15:15:39.978Z,6.85
2017-12-16T15:18:07.802Z,9.30
2017-12-16T15:20:35.244Z,9.23
2017-12-16T15:23:03.565Z,7.40
2017-12-16T15:25:31.007Z,10.50
2017-12-16T15:27:58.446Z,8.85
2017-12-16T15:30:25.871Z,4.37
2017-12-16T15:32:53.313Z,7.85
2017-12-16T15:35:21.134Z,11.85
2017-12-16T15:37:48.573Z,5.68
2017-12-16T15:40:16.017Z,4.32
2017-12-16T15:42:43.450Z,6.03
2017-12-16T15:45:10.890Z,4.65
2017-12-16T15:47:38.726Z,6.93
2017-12-16T15:50:07.030Z,3.78
2017-12-16T15:52:34.857Z,5.00
2017-12-16T15:55:02.301Z,5.68
2017-12-16T15:57:29.750Z,4.70
2017-12-16T15:59:57.182Z,4.43
2017-12-16T16:02:25.007Z,6.57
2017-12-16T16:04:54.419Z,6.37
2017-12-16T16:07:21.846Z,4.87
2017-12-16T16:09:49.300Z,5.60
2017-12-16T16:12:16.757Z,5.90
2017-12-16T16:14:44.199Z,11.12
2017-12-16T16:17:12.578Z,10.20
2017-12-16T16:19:40.951Z,8.38
2017-12-16T16:22:08.398Z,6.07
2017-12-16T16:24:36.051Z,9.60
2017-12-16T16:27:03.483Z,5.95
2017-12-16T16:29:30.944Z,9.55
2017-12-16T16:31:58.372Z,5.60
2017-12-16T16:34:25.810Z,10.18
2017-12-16T16:36:53.240Z,5.10
2017-12-16T16:39:20.680Z,5.80
2017-12-16T16:41:48.519Z,4.68
2017-12-16T16:44:15.951Z,3.50
2017-12-16T16:46:43.415Z,3.03
2017-12-16T16:49:10.866Z,7.00
2017-12-16T16:51:38.315Z,5.82
2017-12-16T16:54:05.748Z,3.80
2017-12-16T16:56:33.178Z,5.32
2017-12-16T16:59:01.018Z,3.35
2017-12-16T17:01:28.447Z,6.95
2017-12-16T17:03:55.897Z,5.05
2017-12-16T17:06:23.337Z,4.90
2017-12-16T17:08:52.037Z,5.62
2017-12-16T17:11:19.454Z,7.32
2017-12-16T17:13:47.291Z,6.65
2017-12-16T17:16:14.754Z,3.05
2017-12-16T17:18:42.198Z,3.90
2017-12-16T17:21:09.630Z,5.47
2017-12-16T17:23:37.070Z,2.87
2017-12-16T17:26:04.505Z,3.62
2017-12-16T17:28:32.334Z,3.33
2017-12-16T17:30:59.781Z,4.00
2017-12-16T17:33:27.222Z,5.15
2017-12-16T17:35:55.546Z,6.03
2017-12-16T17:38:23.010Z,6.15
2017-12-16T17:40:50.421Z,7.07
2017-12-16T17:43:17.866Z,4.90
2017-12-16T17:45:45.290Z,4.22
2017-12-16T17:48:13.116Z,5.05
2017-12-16T17:50:40.534Z,3.20
2017-12-16T17:53:07.947Z,4.35
2017-12-16T17:55:35.430Z,5.85
2017-12-16T17:58:03.273Z,3.70
2017-12-16T18:00:31.100Z,5.03
2017-12-16T18:02:58.521Z,5.28
2017-12-16T18:05:25.935Z,3.65
2017-12-16T18:07:53.380Z,3.45
2017-12-16T18:10:20.807Z,5.97
2017-12-16T18:12:48.221Z,6.30
2017-12-16T18:15:16.053Z,4.93
2017-12-16T18:17:44.353Z,3.95
2017-12-16T18:20:11.777Z,4.40
2017-12-16T18:22:39.213Z,3.30
2017-12-16T18:25:06.705Z,4.03
2017-12-16T18:27:34.116Z,4.40
2017-12-16T18:30:02.403Z,5.57
2017-12-16T18:32:29.842Z,7.45
2017-12-16T18:34:58.561Z,3.12
2017-12-16T18:37:26.020Z,3.70
2017-12-16T18:39:53.463Z,3.95
2017-12-16T18:42:20.874Z,2.45
2017-12-16T18:44:49.142Z,7.95
2017-12-16T18:47:16.579Z,5.68
2017-12-16T18:49:44.934Z,7.07
2017-12-16T18:52:12.375Z,5.90
2017-12-16T18:54:39.814Z,4.78
2017-12-16T18:57:07.729Z,14.55
2017-12-16T18:59:35.179Z,7.28
2017-12-16T19:02:02.622Z,11.12
2017-12-16T19:04:30.050Z,4.50
2017-12-16T19:06:57.887Z,5.00
2017-12-16T19:09:25.333Z,3.25
2017-12-16T19:11:52.775Z,4.93
2017-12-16T19:14:20.212Z,6.37
2017-12-16T19:16:47.635Z,9.55
2017-12-16T19:19:15.470Z,7.32
2017-12-16T19:21:42.907Z,6.35
2017-12-16T19:24:10.346Z,4.90
2017-12-16T19:26:37.800Z,5.20
2017-12-16T19:29:05.213Z,4.82
2017-12-16T19:31:33.058Z,6.95
2017-12-16T19:34:00.483Z,8.65
2017-12-16T19:36:29.870Z,8.38
2017-12-16T19:38:57.306Z,6.60
2017-12-16T19:41:25.141Z,5.60
2017-12-16T19:43:52.578Z,4.55
2017-12-16T19:46:20.023Z,6.75
2017-12-16T19:48:48.354Z,4.82
2017-12-16T19:51:16.199Z,12.90
2017-12-16T19:53:43.634Z,6.85
2017-12-16T19:56:11.982Z,4.65
2017-12-16T19:58:39.430Z,4.05
2017-12-16T20:01:06.858Z,6.53
2017-12-16T20:03:34.312Z,5.65
2017-12-16T20:06:01.750Z,8.15
2017-12-16T20:08:29.206Z,4.20
2017-12-16T20:10:56.651Z,5.28
2017-12-16T20:13:24.079Z,6.68
2017-12-16T20:15:51.524Z,3.72
2017-12-16T20:18:18.974Z,5.28
2017-12-16T20:20:46.795Z,3.62
2017-12-16T20:23:14.243Z,5.37
2017-12-16T20:25:41.683Z,4.80
2017-12-16T20:28:09.132Z,3.60
2017-12-16T20:30:37.435Z,5.28
2017-12-16T20:33:04.880Z,4.15
2017-12-16T20:35:32.317Z,3.53
2017-12-16T20:37:59.766Z,5.22
2017-12-16T20:40:27.187Z,5.55
2017-12-16T20:42:54.618Z,7.22
2017-12-16T20:45:22.067Z,6.35
2017-12-16T20:47:49.509Z,4.90
2017-12-16T20:50:16.952Z,4.72
2017-12-16T20:52:44.387Z,5.87
2017-12-16T20:55:12.306Z,5.60
2017-12-16T20:57:39.750Z,4.35
2017-12-16T21:00:07.199Z,5.65
2017-12-16T21:02:34.627Z,4.00
2017-12-16T21:05:03.477Z,5.50
2017-12-16T21:07:30.902Z,6.55
2017-12-16T21:09:58.327Z,5.62
2017-12-16T21:12:26.158Z,4.62
2017-12-16T21:14:53.591Z,5.20
2017-12-16T21:17:21.034Z,5.30
2017-12-16T21:19:48.482Z,6.10
2017-12-16T21:22:15.924Z,6.70
2017-12-16T21:24:43.356Z,6.90
2017-12-16T21:27:10.799Z,9.90
2017-12-16T21:29:38.234Z,5.00
2017-12-16T21:32:06.007Z,4.03
2017-12-16T21:34:33.438Z,7.05
2017-12-16T21:37:01.842Z,4.55
2017-12-16T21:39:29.291Z,6.60
2017-12-16T21:41:56.728Z,4.35
2017-12-16T21:44:25.046Z,4.87
2017-12-16T21:46:52.491Z,6.10
2017-12-16T21:49:20.853Z,5.43
2017-12-16T21:51:48.295Z,5.32
2017-12-16T21:54:15.739Z,4.50
2017-12-16T21:56:43.174Z,4.65
2017-12-16T21:59:11.884Z,3.58
2017-12-16T22:01:39.327Z,3.72
2017-12-16T22:04:07.185Z,3.92
2017-12-16T22:06:35.028Z,2.35
2017-12-16T22:09:02.463Z,3.47
2017-12-16T22:11:29.915Z,2.92
2017-12-16T22:13:57.336Z,9.45
2017-12-16T22:16:24.795Z,3.40
2017-12-16T22:18:52.604Z,4.97
2017-12-16T22:21:20.052Z,3.75
2017-12-16T22:23:47.487Z,3.70
2017-12-16T22:26:15.855Z,3.60
2017-12-16T22:28:43.298Z,4.50
2017-12-16T22:31:10.726Z,4.47
2017-12-16T22:33:38.179Z,4.25
2017-12-16T22:36:05.615Z,6.93
2017-12-16T22:38:35.033Z,3.60
2017-12-16T22:41:02.467Z,4.40
2017-12-16T22:43:29.926Z,2.87
2017-12-16T22:45:58.267Z,3.40
2017-12-16T22:48:25.698Z,3.03
2017-12-16T22:50:53.528Z,2.70
2017-12-16T22:53:20.982Z,3.60
2017-12-16T22:55:48.419Z,2.97
2017-12-16T22:58:16.793Z,2.72
2017-12-16T23:00:44.242Z,2.33
2017-12-16T23:03:12.593Z,5.25
2017-12-16T23:05:40.433Z,3.40
2017-12-16T23:08:08.755Z,3.87
2017-12-16T23:10:36.191Z,2.95
2017-12-16T23:13:04.023Z,3.30
2017-12-16T23:15:31.450Z,1.90
2017-12-16T23:17:59.870Z,3.05
2017-12-16T23:20:27.304Z,3.75
2017-12-16T23:22:54.740Z,4.25
2017-12-16T23:25:22.210Z,3.05
2017-12-16T23:27:49.653Z,2.90
2017-12-16T23:30:17.094Z,2.72
2017-12-16T23:32:44.558Z,3.42
2017-12-16T23:35:12.001Z,2.30
2017-12-16T23:37:40.273Z,2.33
2017-12-16T23:40:07.866Z,2.75
2017-12-16T23:42:36.443Z,2.83
2017-12-16T23:45:03.903Z,2.37
2017-12-16T23:47:31.692Z,3.10
2017-12-16T23:50:01.120Z,2.50
2017-12-16T23:52:28.555Z,3.17
2017-12-16T23:54:56.015Z,4.93
2017-12-16T23:57:24.395Z,2.85
2017-12-16T23:59:51.844Z,3.87
